KBYH/BYH METAR and TAF weather

Enter ICAO airport designator
Station Type Date Time Source
KBYH METAR 2019/06/19 20:59 UTC NOAA

KBYH 192059Z 24016G30KT 10SM SCT060 33/19 A2966


Station Type Date Time Source
KBYH Decoded METAR 2019/06/19 20:59 UTC NOAA

Eaker Air Force Base, AR, United States (KBYH) 35-58N 089-57W
Jun 19, 2019 - 04:59 PM EDT / 2019.06.19 2059 UTC
Wind: from the WSW (240 degrees) at 18 MPH (16 KT) gusting to 35 MPH (30 KT):0
Visibility: 10 mile(s):0
Sky conditions: partly cloudy
Temperature: 91 F (33 C)
Dew Point: 66 F (19 C)
Relative Humidity: 43%
Pressure (altimeter): 29.66 in. Hg (1004 hPa)
ob: KBYH 192059Z 24016G30KT 10SM SCT060 33/19 A2966
cycle: 21

Station Type Date Time Source
KBYH TAF UTC NOAA

Error!

Example: see airport list